Terminal Aerodrome Forecast
Issued by NWS

Home | Current Version | Previous Version | Text Only | Print | Product List | Glossary On
Versions: 1 2 3 4 5 6 7 8 9 10 11 12 13 14 15 16 17 18 19 20 21
849
FTUS46 KMFR 231120
TAFOTH
TAF
KOTH 231120Z 2312/2412 15010KT P6SM -SHRA SCT025 BKN060
     FM231600 15010KT P6SM VCSH SCT025 BKN060
     FM232200 12010KT P6SM BKN060
     FM240200 06007KT P6SM SCT060=

USA.gov is the U.S. government's official web portal to all federal, state and local government web resources and services.